createdAt,value
2022-11-24T00:00:00.821Z,32.43
2022-11-24T00:02:29.486Z,17.00
2022-11-24T00:04:56.685Z,18.90
2022-11-24T00:07:23.948Z,19.00
2022-11-24T00:09:51.107Z,11.73
2022-11-24T00:12:18.277Z,10.37
2022-11-24T00:14:47.221Z,10.30
2022-11-24T00:17:14.572Z,8.60
2022-11-24T00:19:42.100Z,10.53
2022-11-24T00:22:09.229Z,10.50
2022-11-24T00:24:36.456Z,13.87
2022-11-24T00:27:03.725Z,10.73
2022-11-24T00:29:30.889Z,8.90
2022-11-24T00:31:58.075Z,7.47
2022-11-24T00:34:25.304Z,8.17
2022-11-24T00:36:52.448Z,9.13
2022-11-24T00:39:19.705Z,7.80
2022-11-24T00:41:47.092Z,8.40
2022-11-24T00:44:14.272Z,7.70
2022-11-24T00:46:41.744Z,7.57
2022-11-24T00:49:09.141Z,9.10
2022-11-24T00:51:36.316Z,8.10
2022-11-24T00:54:03.512Z,8.17
2022-11-24T00:56:30.995Z,7.57
2022-11-24T00:58:58.172Z,8.67
2022-11-24T01:01:26.595Z,21.40
2022-11-24T01:03:56.473Z,12.43
2022-11-24T01:06:25.029Z,10.20
2022-11-24T01:08:52.664Z,7.97
2022-11-24T01:11:21.442Z,6.70
2022-11-24T01:13:49.537Z,8.37
2022-11-24T01:16:18.580Z,7.93
2022-11-24T01:18:46.115Z,7.37
2022-11-24T01:21:13.370Z,6.43
2022-11-24T01:23:41.083Z,6.60
2022-11-24T01:26:12.231Z,7.07
2022-11-24T01:28:46.339Z,7.05
2022-11-24T01:31:14.568Z,8.13
2022-11-24T01:33:41.913Z,7.43
2022-11-24T01:36:09.201Z,6.40
2022-11-24T01:38:39.767Z,7.33
2022-11-24T01:41:08.121Z,7.13
2022-11-24T01:43:35.348Z,7.23
2022-11-24T01:46:13.569Z,6.60
2022-11-24T01:48:43.750Z,7.07
2022-11-24T01:51:13.331Z,6.57
2022-11-24T01:53:42.708Z,6.73
2022-11-24T01:56:10.723Z,6.43
2022-11-24T01:58:41.885Z,7.03
2022-11-24T02:01:09.437Z,6.97
2022-11-24T02:03:39.062Z,6.50
2022-11-24T02:06:13.856Z,6.57
2022-11-24T02:08:47.059Z,6.47
2022-11-24T02:11:14.270Z,6.93
2022-11-24T02:13:42.850Z,6.60
2022-11-24T02:16:11.738Z,6.23
2022-11-24T02:18:40.083Z,6.80
2022-11-24T02:21:08.118Z,6.57
2022-11-24T02:23:47.544Z,6.90
2022-11-24T02:26:30.435Z,7.27
2022-11-24T02:28:57.893Z,7.27
2022-11-24T02:31:25.566Z,7.47
2022-11-24T02:33:52.840Z,6.87
2022-11-24T02:36:20.007Z,7.27
2022-11-24T02:38:47.178Z,6.30
2022-11-24T02:41:17.276Z,6.37
2022-11-24T02:43:47.917Z,6.50
2022-11-24T02:46:15.100Z,5.97
2022-11-24T02:48:42.592Z,5.53
2022-11-24T02:51:09.854Z,5.97
2022-11-24T02:53:37.076Z,6.40
2022-11-24T02:56:04.309Z,6.40
2022-11-24T02:58:31.494Z,4.90
2022-11-24T03:00:59.960Z,5.70
2022-11-24T03:03:27.535Z,5.33
2022-11-24T03:05:54.710Z,5.60
2022-11-24T03:08:21.864Z,6.20
2022-11-24T03:10:49.328Z,6.17
2022-11-24T03:13:16.591Z,5.27
2022-11-24T03:15:44.095Z,6.10
2022-11-24T03:18:11.845Z,5.80
2022-11-24T03:20:39.017Z,7.10
2022-11-24T03:23:06.216Z,7.17
2022-11-24T03:25:33.448Z,7.13
2022-11-24T03:28:00.580Z,5.87
2022-11-24T03:30:27.783Z,7.83
2022-11-24T03:32:55.050Z,5.57
2022-11-24T03:35:22.736Z,6.23
2022-11-24T03:37:50.272Z,5.87
2022-11-24T03:40:18.159Z,5.70
2022-11-24T03:42:45.349Z,5.73
2022-11-24T03:45:37.864Z,6.80
2022-11-24T03:47:59.906Z,7.30
2022-11-24T03:50:27.284Z,6.17
2022-11-24T03:52:54.453Z,6.00
2022-11-24T03:55:21.782Z,5.53
2022-11-24T03:57:49.004Z,5.97
2022-11-24T04:00:16.571Z,6.30
2022-11-24T04:02:43.793Z,5.60
2022-11-24T04:05:11.100Z,7.23
2022-11-24T04:07:38.323Z,6.33
2022-11-24T04:10:05.707Z,7.30
2022-11-24T04:12:44.863Z,7.20
2022-11-24T04:15:16.569Z,6.90
2022-11-24T04:17:44.189Z,6.97
2022-11-24T04:20:12.748Z,7.13
2022-11-24T04:22:40.203Z,7.93
2022-11-24T04:25:07.841Z,7.50
2022-11-24T04:27:35.241Z,7.80
2022-11-24T04:30:02.702Z,7.97
2022-11-24T04:32:29.831Z,7.20
2022-11-24T04:34:56.993Z,7.70
2022-11-24T04:37:24.203Z,8.37
2022-11-24T04:39:51.359Z,9.47
2022-11-24T04:42:18.515Z,11.20
2022-11-24T04:44:45.660Z,10.23
2022-11-24T04:47:16.364Z,12.83
2022-11-24T04:49:43.522Z,11.40
2022-11-24T04:52:10.689Z,12.43
2022-11-24T04:54:37.877Z,11.27
2022-11-24T04:57:05.078Z,15.90
2022-11-24T04:59:32.247Z,12.77
2022-11-24T05:01:59.569Z,12.27
2022-11-24T05:04:26.842Z,14.23
2022-11-24T05:06:54.013Z,12.43
2022-11-24T05:09:21.151Z,14.13
2022-11-24T05:11:48.308Z,13.57
2022-11-24T05:14:15.434Z,13.30
2022-11-24T05:16:42.717Z,12.67
2022-11-24T05:19:09.888Z,12.63
2022-11-24T05:21:37.343Z,14.03
2022-11-24T05:24:04.555Z,12.57
2022-11-24T05:26:31.705Z,12.33
2022-11-24T05:28:58.952Z,12.90
2022-11-24T05:31:26.108Z,11.50
2022-11-24T05:33:53.250Z,10.67
2022-11-24T05:36:39.369Z,11.00
2022-11-24T05:39:06.494Z,13.80
2022-11-24T05:41:33.595Z,17.83
2022-11-24T05:44:00.716Z,14.17
2022-11-24T05:46:27.970Z,15.33
2022-11-24T05:48:55.085Z,16.70
2022-11-24T05:51:22.304Z,18.13
2022-11-24T05:53:49.430Z,19.07
2022-11-24T05:59:05.339Z,22.60
2022-11-24T06:01:35.504Z,19.10
2022-11-24T06:04:02.605Z,20.97
2022-11-24T06:07:33.937Z,28.27
2022-11-24T06:10:01.097Z,22.37
2022-11-24T06:12:28.199Z,21.33
2022-11-24T06:14:55.243Z,21.20
2022-11-24T06:17:22.301Z,20.97
2022-11-24T06:19:51.601Z,19.93
2022-11-24T06:22:19.255Z,17.47
2022-11-24T06:24:46.617Z,19.60
2022-11-24T06:27:14.013Z,18.50
2022-11-24T06:29:41.094Z,18.03
2022-11-24T06:32:08.292Z,19.77
2022-11-24T06:34:35.629Z,20.37
2022-11-24T06:37:02.979Z,19.73
2022-11-24T06:39:30.091Z,18.87
2022-11-24T06:41:57.194Z,18.27
2022-11-24T06:44:24.317Z,19.27
2022-11-24T06:46:51.343Z,21.37
2022-11-24T06:49:18.396Z,20.23
2022-11-24T06:51:45.496Z,20.67
2022-11-24T06:54:16.726Z,19.07
2022-11-24T06:56:43.820Z,19.20
2022-11-24T06:59:16.327Z,21.03
2022-11-24T07:03:39.728Z,17.10
2022-11-24T07:08:29.905Z,18.27
2022-11-24T07:12:35.296Z,22.67
2022-11-24T07:17:07.668Z,29.17
2022-11-24T07:19:34.872Z,22.87
2022-11-24T07:22:02.095Z,20.33
2022-11-24T07:24:29.219Z,22.10
2022-11-24T07:26:56.346Z,21.73
2022-11-24T07:29:23.056Z,19.60
2022-11-24T07:31:50.234Z,16.83
2022-11-24T07:34:17.033Z,18.97
2022-11-24T07:37:31.222Z,18.47
2022-11-24T07:39:58.123Z,16.15
2022-11-24T07:42:24.526Z,108.90
2022-11-24T07:46:42.830Z,141.23
2022-11-24T07:49:09.560Z,63.07
2022-11-24T07:51:37.005Z,31.07
2022-11-24T07:54:04.088Z,23.93
2022-11-24T07:56:30.793Z,24.07
2022-11-24T07:58:57.593Z,26.17
2022-11-24T08:01:24.380Z,152.80
2022-11-24T08:03:51.261Z,26.67
2022-11-24T08:06:29.093Z,21.93
2022-11-24T08:08:59.294Z,18.23
2022-11-24T08:11:26.706Z,25.13
2022-11-24T08:13:53.521Z,20.57
2022-11-24T08:16:20.733Z,24.73
2022-11-24T08:18:53.208Z,18.00
2022-11-24T08:21:20.734Z,20.27
2022-11-24T08:23:53.765Z,18.47
2022-11-24T08:26:20.629Z,21.20
2022-11-24T08:28:47.983Z,21.47
2022-11-24T08:31:21.359Z,18.17
2022-11-24T08:33:48.251Z,19.13
2022-11-24T08:36:17.894Z,15.57
2022-11-24T08:38:45.266Z,14.80
2022-11-24T08:41:14.601Z,12.23
2022-11-24T08:43:42.101Z,12.23
2022-11-24T08:46:17.328Z,12.00
2022-11-24T08:48:48.882Z,11.73
2022-11-24T08:51:18.511Z,36.70
2022-11-24T08:53:45.698Z,17.53
2022-11-24T08:56:13.156Z,14.50
2022-11-24T08:58:40.719Z,15.27
2022-11-24T09:01:10.560Z,19.77
2022-11-24T09:03:38.337Z,15.60
2022-11-24T09:06:07.053Z,14.07
2022-11-24T09:08:34.209Z,11.60
2022-11-24T09:11:05.758Z,11.00
2022-11-24T09:13:33.282Z,11.38
2022-11-24T09:16:08.883Z,12.17
2022-11-24T09:18:36.009Z,10.20
2022-11-24T09:21:14.417Z,12.20
2022-11-24T09:23:41.847Z,15.87
2022-11-24T09:26:23.403Z,12.60
2022-11-24T09:28:54.530Z,11.18
2022-11-24T09:31:23.781Z,12.02
2022-11-24T09:33:50.938Z,11.27
2022-11-24T09:36:18.196Z,9.77
2022-11-24T09:38:45.324Z,10.60
2022-11-24T09:41:14.792Z,12.27
2022-11-24T09:43:51.935Z,12.67
2022-11-24T09:46:35.620Z,13.10
2022-11-24T09:49:05.149Z,12.17
2022-11-24T09:51:33.721Z,15.77
2022-11-24T09:54:10.017Z,26.83
2022-11-24T09:56:39.217Z,19.33
2022-11-24T10:01:40.831Z,15.70
2022-11-24T10:07:00.142Z,17.43
2022-11-24T10:09:52.154Z,20.67
2022-11-24T10:15:31.319Z,15.03
2022-11-24T10:18:01.213Z,15.73
2022-11-24T10:20:31.766Z,15.90
2022-11-24T10:23:39.476Z,18.90
2022-11-24T10:33:10.442Z,25.87
2022-11-24T10:35:46.009Z,23.50
2022-11-24T10:38:22.713Z,22.50
2022-11-24T10:40:58.179Z,21.77
2022-11-24T10:43:28.943Z,29.90
2022-11-24T10:46:10.238Z,20.50
2022-11-24T10:48:58.157Z,16.75
2022-11-24T10:51:35.495Z,20.57
2022-11-24T10:54:20.456Z,23.50
2022-11-24T10:56:50.500Z,24.77
2022-11-24T10:59:38.345Z,19.97
2022-11-24T11:02:49.974Z,16.10
2022-11-24T11:05:32.793Z,18.33
2022-11-24T11:08:16.849Z,18.83
2022-11-24T11:10:45.474Z,20.40
2022-11-24T11:13:22.455Z,17.53
2022-11-24T11:15:49.590Z,18.93
2022-11-24T11:34:37.100Z,22.20
2022-11-24T11:37:05.075Z,17.80
2022-11-24T11:39:40.432Z,17.30
2022-11-24T11:43:00.732Z,15.63
2022-11-24T11:45:39.374Z,15.07
2022-11-24T11:48:40.678Z,12.20
2022-11-24T11:51:50.250Z,12.07
2022-11-24T11:54:31.304Z,12.77
2022-11-24T11:57:18.124Z,12.85
2022-11-24T11:59:50.127Z,12.80
2022-11-24T12:03:01.884Z,12.53
2022-11-24T12:05:46.879Z,10.77
2022-11-24T12:09:03.418Z,11.20
2022-11-24T12:11:35.091Z,10.90
2022-11-24T12:14:24.120Z,11.33
2022-11-24T12:17:35.482Z,10.73
2022-11-24T12:20:38.438Z,12.07
2022-11-24T12:23:26.884Z,9.23
2022-11-24T12:26:22.138Z,12.57
2022-11-24T12:29:13.261Z,9.90
2022-11-24T12:32:12.042Z,11.57
2022-11-24T12:34:52.812Z,10.53
2022-11-24T12:37:22.627Z,11.40
2022-11-24T12:40:17.905Z,10.23
2022-11-24T12:43:12.606Z,11.57
2022-11-24T12:45:45.701Z,16.17
2022-11-24T12:48:36.938Z,11.53
2022-11-24T12:51:11.623Z,19.27
2022-11-24T12:53:40.156Z,12.23
2022-11-24T12:56:13.365Z,10.23
2022-11-24T12:58:45.892Z,11.17
2022-11-24T13:01:16.774Z,12.63
2022-11-24T13:04:07.512Z,10.80
2022-11-24T13:07:01.027Z,10.23
2022-11-24T13:09:28.972Z,10.30
2022-11-24T13:12:21.318Z,8.60
2022-11-24T13:14:49.894Z,9.00
2022-11-24T13:17:52.416Z,8.77
2022-11-24T13:20:25.559Z,8.50
2022-11-24T13:22:56.365Z,21.63
2022-11-24T13:25:31.039Z,10.63
2022-11-24T13:28:00.636Z,10.97
2022-11-24T13:30:38.039Z,10.90
2022-11-24T13:33:16.884Z,8.60
2022-11-24T13:36:03.652Z,9.57
2022-11-24T13:38:46.534Z,11.97
2022-11-24T13:41:32.775Z,9.70
2022-11-24T13:44:15.268Z,11.30
2022-11-24T13:47:06.937Z,10.00
2022-11-24T13:49:41.068Z,9.63
2022-11-24T13:52:36.989Z,9.50
2022-11-24T13:55:33.031Z,9.83
2022-11-24T13:58:31.505Z,10.20
2022-11-24T14:01:13.433Z,8.87
2022-11-24T14:06:46.829Z,9.37
2022-11-24T14:09:35.548Z,8.43
2022-11-24T14:12:27.305Z,9.67
2022-11-24T14:19:27.912Z,10.20
2022-11-24T14:21:58.975Z,14.47
2022-11-24T14:43:25.214Z,13.00
2022-11-24T14:49:23.464Z,14.47
2022-11-24T14:58:54.038Z,12.20
2022-11-24T15:01:27.822Z,10.93
2022-11-24T15:07:27.468Z,10.87
2022-11-24T15:10:00.656Z,9.83
2022-11-24T15:12:42.244Z,11.07
2022-11-24T15:32:56.348Z,12.47
2022-11-24T15:35:26.028Z,11.53
2022-11-24T15:37:58.241Z,12.77
2022-11-24T15:40:25.276Z,12.23
2022-11-24T15:42:59.625Z,14.63
2022-11-24T15:45:30.586Z,16.47
2022-11-24T15:47:57.574Z,13.70
2022-11-24T15:50:25.608Z,13.30
2022-11-24T15:52:53.009Z,13.97
2022-11-24T15:55:22.333Z,13.90
2022-11-24T15:57:57.923Z,14.67
2022-11-24T16:00:25.009Z,15.30
2022-11-24T16:02:52.822Z,12.77
2022-11-24T16:05:19.801Z,11.17
2022-11-24T16:07:46.803Z,11.33
2022-11-24T16:10:23.832Z,12.30
2022-11-24T16:12:51.402Z,12.57
2022-11-24T16:15:18.459Z,12.07
2022-11-24T16:17:45.722Z,13.40
2022-11-24T16:20:13.916Z,13.53
2022-11-24T16:22:42.492Z,14.70
2022-11-24T16:25:10.675Z,15.93
2022-11-24T16:27:43.036Z,16.30
2022-11-24T16:30:28.330Z,15.93
2022-11-24T16:32:55.820Z,15.50
2022-11-24T16:35:23.654Z,17.03
2022-11-24T16:37:50.983Z,16.60
2022-11-24T16:40:20.517Z,18.90
2022-11-24T16:42:48.301Z,16.47
2022-11-24T16:45:15.788Z,16.33
2022-11-24T16:47:54.001Z,17.53
2022-11-24T16:50:21.059Z,19.40
2022-11-24T16:52:50.061Z,20.20
2022-11-24T16:55:17.032Z,18.33
2022-11-24T16:57:45.157Z,15.77
2022-11-24T17:00:13.031Z,13.57
2022-11-24T17:02:40.970Z,13.37
2022-11-24T17:05:10.049Z,13.03
2022-11-24T17:07:37.740Z,13.43
2022-11-24T17:10:07.255Z,13.23
2022-11-24T17:12:36.890Z,13.30
2022-11-24T17:18:23.063Z,13.03
2022-11-24T17:20:43.671Z,14.03
2022-11-24T17:23:11.898Z,12.43
2022-11-24T17:25:42.982Z,12.80
2022-11-24T17:28:11.062Z,11.70
2022-11-24T17:30:38.527Z,13.47
2022-11-24T17:33:06.095Z,14.40
2022-11-24T17:35:37.938Z,12.23
2022-11-24T17:38:07.237Z,11.97
2022-11-24T17:40:35.649Z,12.60
2022-11-24T17:43:03.780Z,12.50
2022-11-24T17:45:31.767Z,14.27
2022-11-24T17:48:01.879Z,13.13
2022-11-24T17:50:30.634Z,11.33
2022-11-24T17:52:58.269Z,14.07
2022-11-24T17:55:32.549Z,12.57
2022-11-24T17:57:59.498Z,12.00
2022-11-24T18:00:27.451Z,13.37
2022-11-24T18:02:54.429Z,11.87
2022-11-24T18:05:26.931Z,11.70
2022-11-24T18:07:55.595Z,12.13
2022-11-24T18:10:22.862Z,12.60
2022-11-24T18:12:50.304Z,15.27
2022-11-24T18:15:18.508Z,14.77
2022-11-24T18:17:45.594Z,15.70
2022-11-24T18:20:13.461Z,15.20
2022-11-24T18:23:04.495Z,16.33
2022-11-24T18:25:29.010Z,16.43
2022-11-24T18:27:56.305Z,14.67
2022-11-24T18:30:23.552Z,15.33
2022-11-24T18:32:51.132Z,14.23
2022-11-24T18:35:21.093Z,16.57
2022-11-24T18:37:48.534Z,15.83
2022-11-24T18:40:15.735Z,17.27
2022-11-24T18:42:44.337Z,16.93
2022-11-24T18:45:11.709Z,17.70
2022-11-24T18:47:41.136Z,15.93
2022-11-24T18:50:09.047Z,16.50
2022-11-24T18:52:36.189Z,17.50
2022-11-24T18:55:04.962Z,17.53
2022-11-24T18:57:34.865Z,18.97
2022-11-24T19:00:02.986Z,18.80
2022-11-24T19:02:30.851Z,17.73
2022-11-24T19:04:58.090Z,16.97
2022-11-24T19:07:25.719Z,19.80
2022-11-24T19:09:53.336Z,17.30
2022-11-24T19:12:20.712Z,17.73
2022-11-24T19:14:48.306Z,19.10
2022-11-24T19:17:15.694Z,18.60
2022-11-24T19:19:43.261Z,41.03
2022-11-24T19:22:10.720Z,38.40
2022-11-24T19:24:38.483Z,50.87
2022-11-24T19:27:05.555Z,39.03
2022-11-24T19:29:33.148Z,30.33
2022-11-24T19:32:02.060Z,57.47
2022-11-24T19:34:29.462Z,25.03
2022-11-24T19:36:57.196Z,34.43
2022-11-24T19:39:24.326Z,29.57
2022-11-24T19:41:51.310Z,38.90
2022-11-24T19:44:18.563Z,22.53
2022-11-24T19:46:45.779Z,21.80
2022-11-24T19:49:12.946Z,27.37
2022-11-24T19:51:40.280Z,22.97
2022-11-24T19:54:10.724Z,22.60
2022-11-24T19:56:38.151Z,25.23
2022-11-24T19:59:06.747Z,25.47
2022-11-24T20:01:39.693Z,25.63
2022-11-24T20:04:09.547Z,27.37
2022-11-24T20:06:38.896Z,27.63
2022-11-24T20:09:10.427Z,26.13
2022-11-24T20:11:38.516Z,26.85
2022-11-24T20:14:07.347Z,43.63
2022-11-24T20:16:37.315Z,27.57
2022-11-24T20:19:12.262Z,27.20
2022-11-24T20:21:41.683Z,26.63
2022-11-24T20:24:09.071Z,23.03
2022-11-24T20:26:40.776Z,73.07
2022-11-24T20:29:13.758Z,157.70
2022-11-24T20:31:51.321Z,85.03
2022-11-24T20:34:20.412Z,42.37
2022-11-24T20:36:49.087Z,35.73
2022-11-24T20:39:21.945Z,29.83
2022-11-24T20:41:49.894Z,25.63
2022-11-24T20:44:18.690Z,26.87
2022-11-24T20:46:46.932Z,22.30
2022-11-24T20:49:18.671Z,22.90
2022-11-24T20:51:55.618Z,23.02
2022-11-24T20:54:23.507Z,24.43
2022-11-24T20:56:50.652Z,22.07
2022-11-24T20:59:21.727Z,21.43
2022-11-24T21:01:50.320Z,25.23
2022-11-24T21:04:23.072Z,24.23
2022-11-24T21:06:51.392Z,21.40
2022-11-24T21:09:18.907Z,23.13
2022-11-24T21:11:47.495Z,36.27
2022-11-24T21:14:14.976Z,27.70
2022-11-24T21:16:43.240Z,26.10
2022-11-24T21:19:14.453Z,30.10
2022-11-24T21:21:43.089Z,43.83
2022-11-24T21:24:13.258Z,36.20
2022-11-24T21:26:41.147Z,28.93
2022-11-24T21:29:12.078Z,44.80
2022-11-24T21:31:41.712Z,37.67
2022-11-24T21:34:09.838Z,35.20
2022-11-24T21:36:40.970Z,27.13
2022-11-24T21:39:14.050Z,26.17
2022-11-24T21:41:41.554Z,23.50
2022-11-24T21:44:10.482Z,25.03
2022-11-24T21:46:44.093Z,25.20
2022-11-24T21:49:17.841Z,29.23
2022-11-24T21:51:45.032Z,25.33
2022-11-24T21:54:12.077Z,25.53
2022-11-24T21:56:39.423Z,27.23
2022-11-24T21:59:06.431Z,26.60
2022-11-24T22:01:33.771Z,26.60
2022-11-24T22:04:02.598Z,26.43
2022-11-24T22:06:29.833Z,27.07
2022-11-24T22:08:57.071Z,24.70
2022-11-24T22:11:25.565Z,24.17
2022-11-24T22:13:53.227Z,26.33
2022-11-24T22:16:23.367Z,26.07
2022-11-24T22:18:51.087Z,25.70
2022-11-24T22:21:31.465Z,29.83
2022-11-24T22:23:58.707Z,25.03
2022-11-24T22:26:26.851Z,25.77
2022-11-24T22:28:54.963Z,24.17
2022-11-24T22:31:27.268Z,24.23
2022-11-24T22:33:55.521Z,25.00
2022-11-24T22:36:25.545Z,28.70
2022-11-24T22:39:05.454Z,25.10
2022-11-24T22:41:34.126Z,26.07
2022-11-24T22:44:01.858Z,25.40
2022-11-24T22:46:30.600Z,25.60
2022-11-24T22:49:00.926Z,24.77
2022-11-24T22:51:33.612Z,22.13
2022-11-24T22:54:05.830Z,23.23
2022-11-24T22:56:50.692Z,23.97
2022-11-24T22:59:18.070Z,25.10
2022-11-24T23:01:45.462Z,24.43
2022-11-24T23:04:12.614Z,23.60
2022-11-24T23:06:39.971Z,25.87
2022-11-24T23:09:11.338Z,23.13
2022-11-24T23:11:40.459Z,23.27
2022-11-24T23:14:12.753Z,22.67
2022-11-24T23:16:45.162Z,24.30
2022-11-24T23:19:12.887Z,23.00
2022-11-24T23:21:39.982Z,23.37
2022-11-24T23:24:07.887Z,22.73
2022-11-24T23:26:38.044Z,23.60
2022-11-24T23:29:06.659Z,21.37
2022-11-24T23:31:34.088Z,20.40
2022-11-24T23:34:04.600Z,22.10
2022-11-24T23:36:33.217Z,22.40
2022-11-24T23:39:08.879Z,21.33
2022-11-24T23:41:36.145Z,20.80
2022-11-24T23:44:03.637Z,22.67
2022-11-24T23:46:32.866Z,22.37
2022-11-24T23:49:00.654Z,22.13
2022-11-24T23:51:30.333Z,23.97
2022-11-24T23:53:58.482Z,27.20
2022-11-24T23:56:27.832Z,22.83
2022-11-24T23:58:55.112Z,23.13
